sensor_id;sensor_type;location;lat;lon;timestamp;P1;durP1;ratioP1;P2;durP2;ratioP2
3343;SDS011;1685;53.104;8.228;2023-10-09T00:01:25;6.47;;;3.70;;
3343;SDS011;1685;53.104;8.228;2023-10-09T00:03:52;13.53;;;5.63;;
3343;SDS011;1685;53.104;8.228;2023-10-09T00:06:21;5.90;;;4.23;;
3343;SDS011;1685;53.104;8.228;2023-10-09T00:08:56;9.63;;;4.60;;
3343;SDS011;1685;53.104;8.228;2023-10-09T00:11:36;8.20;;;5.10;;
3343;SDS011;1685;53.104;8.228;2023-10-09T00:14:08;9.50;;;4.40;;
3343;SDS011;1685;53.104;8.228;2023-10-09T00:16:36;6.67;;;4.27;;
3343;SDS011;1685;53.104;8.228;2023-10-09T00:19:08;7.93;;;4.17;;
3343;SDS011;1685;53.104;8.228;2023-10-09T00:21:45;5.40;;;4.87;;
3343;SDS011;1685;53.104;8.228;2023-10-09T00:24:12;9.40;;;5.07;;
3343;SDS011;1685;53.104;8.228;2023-10-09T00:26:42;8.73;;;5.17;;
3343;SDS011;1685;53.104;8.228;2023-10-09T00:29:12;8.13;;;3.97;;
3343;SDS011;1685;53.104;8.228;2023-10-09T00:31:46;12.00;;;5.10;;
3343;SDS011;1685;53.104;8.228;2023-10-09T00:34:19;6.57;;;4.10;;
3343;SDS011;1685;53.104;8.228;2023-10-09T00:36:47;5.30;;;3.77;;
3343;SDS011;1685;53.104;8.228;2023-10-09T00:39:17;8.03;;;4.30;;
3343;SDS011;1685;53.104;8.228;2023-10-09T00:42:05;7.97;;;4.30;;
3343;SDS011;1685;53.104;8.228;2023-10-09T00:44:34;9.90;;;4.37;;
3343;SDS011;1685;53.104;8.228;2023-10-09T00:47:05;4.33;;;3.53;;
3343;SDS011;1685;53.104;8.228;2023-10-09T00:49:45;5.20;;;3.83;;
3343;SDS011;1685;53.104;8.228;2023-10-09T00:52:13;4.07;;;3.70;;
3343;SDS011;1685;53.104;8.228;2023-10-09T00:54:48;4.27;;;3.90;;
3343;SDS011;1685;53.104;8.228;2023-10-09T00:57:17;8.47;;;3.57;;
3343;SDS011;1685;53.104;8.228;2023-10-09T00:59:52;4.20;;;3.80;;
3343;SDS011;1685;53.104;8.228;2023-10-09T01:02:25;7.83;;;4.33;;
3343;SDS011;1685;53.104;8.228;2023-10-09T01:05:01;6.23;;;3.47;;
3343;SDS011;1685;53.104;8.228;2023-10-09T01:07:36;8.03;;;4.37;;
3343;SDS011;1685;53.104;8.228;2023-10-09T01:10:06;10.53;;;4.37;;
3343;SDS011;1685;53.104;8.228;2023-10-09T01:12:54;7.87;;;4.37;;
3343;SDS011;1685;53.104;8.228;2023-10-09T01:15:22;6.77;;;4.20;;
3343;SDS011;1685;53.104;8.228;2023-10-09T01:18:08;16.43;;;4.97;;
3343;SDS011;1685;53.104;8.228;2023-10-09T01:20:37;8.57;;;4.00;;
3343;SDS011;1685;53.104;8.228;2023-10-09T01:23:11;8.13;;;4.87;;
3343;SDS011;1685;53.104;8.228;2023-10-09T01:25:38;7.40;;;4.63;;
3343;SDS011;1685;53.104;8.228;2023-10-09T01:28:10;13.43;;;4.83;;
3343;SDS011;1685;53.104;8.228;2023-10-09T01:30:40;7.30;;;4.47;;
3343;SDS011;1685;53.104;8.228;2023-10-09T01:33:08;8.00;;;4.33;;
3343;SDS011;1685;53.104;8.228;2023-10-09T01:35:47;4.57;;;4.17;;
3343;SDS011;1685;53.104;8.228;2023-10-09T01:38:20;6.93;;;4.63;;
3343;SDS011;1685;53.104;8.228;2023-10-09T01:41:06;6.70;;;4.63;;
3343;SDS011;1685;53.104;8.228;2023-10-09T01:43:34;8.77;;;4.17;;
3343;SDS011;1685;53.104;8.228;2023-10-09T01:46:01;5.47;;;3.97;;
3343;SDS011;1685;53.104;8.228;2023-10-09T01:48:30;13.07;;;4.83;;
3343;SDS011;1685;53.104;8.228;2023-10-09T01:51:03;5.20;;;4.70;;
3343;SDS011;1685;53.104;8.228;2023-10-09T01:53:35;7.20;;;4.63;;
3343;SDS011;1685;53.104;8.228;2023-10-09T01:56:09;6.60;;;4.47;;
3343;SDS011;1685;53.104;8.228;2023-10-09T01:58:40;8.80;;;4.80;;
3343;SDS011;1685;53.104;8.228;2023-10-09T02:01:08;5.20;;;4.53;;
3343;SDS011;1685;53.104;8.228;2023-10-09T02:03:35;10.00;;;4.30;;
3343;SDS011;1685;53.104;8.228;2023-10-09T02:06:03;9.40;;;5.20;;
3343;SDS011;1685;53.104;8.228;2023-10-09T02:08:44;6.10;;;4.60;;
3343;SDS011;1685;53.104;8.228;2023-10-09T02:11:15;10.43;;;4.70;;
3343;SDS011;1685;53.104;8.228;2023-10-09T02:13:49;9.30;;;6.80;;
3343;SDS011;1685;53.104;8.228;2023-10-09T02:16:20;12.47;;;5.00;;
3343;SDS011;1685;53.104;8.228;2023-10-09T02:18:54;10.70;;;5.50;;
3343;SDS011;1685;53.104;8.228;2023-10-09T02:21:24;8.47;;;4.83;;
3343;SDS011;1685;53.104;8.228;2023-10-09T02:24:00;9.70;;;6.00;;
3343;SDS011;1685;53.104;8.228;2023-10-09T02:26:34;6.43;;;4.67;;
3343;SDS011;1685;53.104;8.228;2023-10-09T02:29:26;13.27;;;5.03;;
3343;SDS011;1685;53.104;8.228;2023-10-09T02:31:53;13.03;;;6.80;;
3343;SDS011;1685;53.104;8.228;2023-10-09T02:34:26;7.00;;;5.40;;
3343;SDS011;1685;53.104;8.228;2023-10-09T02:36:54;7.10;;;4.60;;
3343;SDS011;1685;53.104;8.228;2023-10-09T02:39:30;8.53;;;4.93;;
3343;SDS011;1685;53.104;8.228;2023-10-09T02:42:02;5.17;;;4.00;;
3343;SDS011;1685;53.104;8.228;2023-10-09T02:44:44;11.30;;;4.93;;
3343;SDS011;1685;53.104;8.228;2023-10-09T02:47:14;8.43;;;4.40;;
3343;SDS011;1685;53.104;8.228;2023-10-09T02:49:45;8.47;;;4.60;;
3343;SDS011;1685;53.104;8.228;2023-10-09T02:52:13;5.33;;;4.60;;
3343;SDS011;1685;53.104;8.228;2023-10-09T02:54:45;6.63;;;4.83;;
3343;SDS011;1685;53.104;8.228;2023-10-09T02:57:12;7.40;;;5.23;;
3343;SDS011;1685;53.104;8.228;2023-10-09T02:59:47;16.60;;;5.87;;
3343;SDS011;1685;53.104;8.228;2023-10-09T03:02:16;8.73;;;5.23;;
3343;SDS011;1685;53.104;8.228;2023-10-09T03:04:43;8.17;;;5.77;;
3343;SDS011;1685;53.104;8.228;2023-10-09T03:07:10;13.10;;;6.00;;
3343;SDS011;1685;53.104;8.228;2023-10-09T03:09:39;9.00;;;5.80;;
3343;SDS011;1685;53.104;8.228;2023-10-09T03:12:08;12.43;;;6.00;;
3343;SDS011;1685;53.104;8.228;2023-10-09T03:14:37;10.30;;;6.37;;
3343;SDS011;1685;53.104;8.228;2023-10-09T03:17:04;15.43;;;7.40;;
3343;SDS011;1685;53.104;8.228;2023-10-09T03:19:36;15.00;;;6.40;;
3343;SDS011;1685;53.104;8.228;2023-10-09T03:22:03;13.83;;;6.70;;
3343;SDS011;1685;53.104;8.228;2023-10-09T03:24:34;14.97;;;6.90;;
3343;SDS011;1685;53.104;8.228;2023-10-09T03:27:01;18.73;;;7.70;;
3343;SDS011;1685;53.104;8.228;2023-10-09T03:29:30;20.00;;;8.17;;
3343;SDS011;1685;53.104;8.228;2023-10-09T03:31:58;21.70;;;8.50;;
3343;SDS011;1685;53.104;8.228;2023-10-09T03:34:25;13.77;;;8.67;;
3343;SDS011;1685;53.104;8.228;2023-10-09T03:36:53;15.20;;;9.27;;
3343;SDS011;1685;53.104;8.228;2023-10-09T03:39:29;16.17;;;8.97;;
3343;SDS011;1685;53.104;8.228;2023-10-09T03:42:03;15.57;;;9.00;;
3343;SDS011;1685;53.104;8.228;2023-10-09T03:44:32;18.47;;;9.90;;
3343;SDS011;1685;53.104;8.228;2023-10-09T03:47:04;13.40;;;8.80;;
3343;SDS011;1685;53.104;8.228;2023-10-09T03:49:34;19.27;;;11.13;;
3343;SDS011;1685;53.104;8.228;2023-10-09T03:52:04;15.73;;;9.40;;
3343;SDS011;1685;53.104;8.228;2023-10-09T03:54:33;18.30;;;9.60;;
3343;SDS011;1685;53.104;8.228;2023-10-09T03:57:01;18.40;;;10.50;;
3343;SDS011;1685;53.104;8.228;2023-10-09T03:59:28;23.10;;;11.60;;
3343;SDS011;1685;53.104;8.228;2023-10-09T04:01:58;24.17;;;11.60;;
3343;SDS011;1685;53.104;8.228;2023-10-09T04:04:25;27.43;;;12.03;;
3343;SDS011;1685;53.104;8.228;2023-10-09T04:06:53;28.50;;;11.50;;
3343;SDS011;1685;53.104;8.228;2023-10-09T04:09:20;18.90;;;12.23;;
3343;SDS011;1685;53.104;8.228;2023-10-09T04:12:01;23.97;;;11.40;;
3343;SDS011;1685;53.104;8.228;2023-10-09T04:14:47;29.03;;;13.93;;
3343;SDS011;1685;53.104;8.228;2023-10-09T04:17:21;32.43;;;13.73;;
3343;SDS011;1685;53.104;8.228;2023-10-09T04:19:59;40.07;;;14.57;;
3343;SDS011;1685;53.104;8.228;2023-10-09T04:22:44;27.60;;;13.87;;
3343;SDS011;1685;53.104;8.228;2023-10-09T04:25:16;35.43;;;14.70;;
3343;SDS011;1685;53.104;8.228;2023-10-09T04:27:50;34.37;;;15.53;;
3343;SDS011;1685;53.104;8.228;2023-10-09T04:30:18;35.07;;;15.67;;
3343;SDS011;1685;53.104;8.228;2023-10-09T04:32:46;33.33;;;16.20;;
3343;SDS011;1685;53.104;8.228;2023-10-09T04:35:14;32.90;;;14.70;;
3343;SDS011;1685;53.104;8.228;2023-10-09T04:37:48;33.63;;;16.27;;
3343;SDS011;1685;53.104;8.228;2023-10-09T04:40:25;48.73;;;17.83;;
3343;SDS011;1685;53.104;8.228;2023-10-09T04:43:16;36.70;;;17.17;;
3343;SDS011;1685;53.104;8.228;2023-10-09T04:45:45;50.03;;;17.50;;
3343;SDS011;1685;53.104;8.228;2023-10-09T04:48:31;51.40;;;18.80;;
3343;SDS011;1685;53.104;8.228;2023-10-09T04:51:04;46.90;;;18.20;;
3343;SDS011;1685;53.104;8.228;2023-10-09T04:53:45;49.90;;;18.90;;
3343;SDS011;1685;53.104;8.228;2023-10-09T04:56:20;38.73;;;18.30;;
3343;SDS011;1685;53.104;8.228;2023-10-09T04:58:49;47.60;;;18.30;;
3343;SDS011;1685;53.104;8.228;2023-10-09T05:01:28;38.43;;;18.80;;
3343;SDS011;1685;53.104;8.228;2023-10-09T05:04:04;42.33;;;18.37;;
3343;SDS011;1685;53.104;8.228;2023-10-09T05:06:52;47.70;;;20.53;;
3343;SDS011;1685;53.104;8.228;2023-10-09T05:09:22;52.30;;;19.97;;
3343;SDS011;1685;53.104;8.228;2023-10-09T05:11:49;57.57;;;23.87;;
3343;SDS011;1685;53.104;8.228;2023-10-09T05:14:19;59.73;;;23.37;;
3343;SDS011;1685;53.104;8.228;2023-10-09T05:16:52;60.63;;;22.60;;
3343;SDS011;1685;53.104;8.228;2023-10-09T05:19:27;69.27;;;25.20;;
3343;SDS011;1685;53.104;8.228;2023-10-09T05:22:07;68.43;;;24.53;;
3343;SDS011;1685;53.104;8.228;2023-10-09T05:24:42;78.60;;;25.37;;
3343;SDS011;1685;53.104;8.228;2023-10-09T05:27:10;76.33;;;26.20;;
3343;SDS011;1685;53.104;8.228;2023-10-09T05:29:43;68.83;;;25.20;;
3343;SDS011;1685;53.104;8.228;2023-10-09T05:32:37;68.33;;;25.83;;
3343;SDS011;1685;53.104;8.228;2023-10-09T05:35:14;84.80;;;27.60;;
3343;SDS011;1685;53.104;8.228;2023-10-09T05:37:40;77.47;;;27.60;;
3343;SDS011;1685;53.104;8.228;2023-10-09T05:40:11;80.30;;;28.20;;
3343;SDS011;1685;53.104;8.228;2023-10-09T05:42:56;79.93;;;30.27;;
3343;SDS011;1685;53.104;8.228;2023-10-09T05:45:28;73.60;;;29.00;;
3343;SDS011;1685;53.104;8.228;2023-10-09T05:48:12;79.93;;;30.30;;
3343;SDS011;1685;53.104;8.228;2023-10-09T05:50:58;93.80;;;31.67;;
3343;SDS011;1685;53.104;8.228;2023-10-09T05:53:44;79.80;;;28.20;;
3343;SDS011;1685;53.104;8.228;2023-10-09T05:56:29;84.83;;;30.63;;
3343;SDS011;1685;53.104;8.228;2023-10-09T05:59:14;88.00;;;30.77;;
3343;SDS011;1685;53.104;8.228;2023-10-09T06:01:58;96.43;;;34.27;;
3343;SDS011;1685;53.104;8.228;2023-10-09T06:05:13;89.93;;;33.07;;
3343;SDS011;1685;53.104;8.228;2023-10-09T06:07:56;103.43;;;33.13;;
3343;SDS011;1685;53.104;8.228;2023-10-09T06:10:32;96.30;;;34.97;;
3343;SDS011;1685;53.104;8.228;2023-10-09T06:13:05;86.80;;;32.13;;
3343;SDS011;1685;53.104;8.228;2023-10-09T06:15:36;106.80;;;33.83;;
3343;SDS011;1685;53.104;8.228;2023-10-09T06:18:26;100.17;;;35.10;;
3343;SDS011;1685;53.104;8.228;2023-10-09T06:20:58;101.43;;;36.30;;
3343;SDS011;1685;53.104;8.228;2023-10-09T06:23:56;110.17;;;37.13;;
3343;SDS011;1685;53.104;8.228;2023-10-09T06:26:40;94.70;;;35.10;;
3343;SDS011;1685;53.104;8.228;2023-10-09T06:29:16;118.70;;;35.43;;
3343;SDS011;1685;53.104;8.228;2023-10-09T06:31:59;104.67;;;36.23;;
3343;SDS011;1685;53.104;8.228;2023-10-09T06:34:42;104.23;;;37.47;;
3343;SDS011;1685;53.104;8.228;2023-10-09T06:37:11;92.20;;;35.43;;
3343;SDS011;1685;53.104;8.228;2023-10-09T06:40:00;112.30;;;38.53;;
3343;SDS011;1685;53.104;8.228;2023-10-09T06:43:01;96.67;;;35.33;;
3343;SDS011;1685;53.104;8.228;2023-10-09T06:45:34;91.70;;;34.37;;
3343;SDS011;1685;53.104;8.228;2023-10-09T06:48:09;112.67;;;38.57;;
3343;SDS011;1685;53.104;8.228;2023-10-09T06:50:50;111.47;;;37.63;;
3343;SDS011;1685;53.104;8.228;2023-10-09T06:53:29;103.77;;;36.20;;
3343;SDS011;1685;53.104;8.228;2023-10-09T06:56:25;111.67;;;38.03;;
3343;SDS011;1685;53.104;8.228;2023-10-09T06:59:12;97.60;;;35.93;;
3343;SDS011;1685;53.104;8.228;2023-10-09T07:01:42;114.53;;;37.77;;
3343;SDS011;1685;53.104;8.228;2023-10-09T07:04:11;116.83;;;39.13;;
3343;SDS011;1685;53.104;8.228;2023-10-09T07:06:44;121.53;;;39.00;;
3343;SDS011;1685;53.104;8.228;2023-10-09T07:09:15;109.27;;;38.30;;
3343;SDS011;1685;53.104;8.228;2023-10-09T07:11:46;117.50;;;39.40;;
3343;SDS011;1685;53.104;8.228;2023-10-09T07:14:24;117.90;;;42.73;;
3343;SDS011;1685;53.104;8.228;2023-10-09T07:17:09;106.70;;;36.90;;
3343;SDS011;1685;53.104;8.228;2023-10-09T07:19:47;117.27;;;40.10;;
3343;SDS011;1685;53.104;8.228;2023-10-09T07:22:35;128.43;;;39.67;;
3343;SDS011;1685;53.104;8.228;2023-10-09T07:25:17;124.80;;;40.53;;
3343;SDS011;1685;53.104;8.228;2023-10-09T07:27:59;115.40;;;39.07;;
3343;SDS011;1685;53.104;8.228;2023-10-09T07:30:27;127.73;;;43.27;;
3343;SDS011;1685;53.104;8.228;2023-10-09T07:33:04;123.97;;;44.90;;
3343;SDS011;1685;53.104;8.228;2023-10-09T07:35:42;126.57;;;41.80;;
3343;SDS011;1685;53.104;8.228;2023-10-09T07:38:23;137.00;;;40.63;;
3343;SDS011;1685;53.104;8.228;2023-10-09T07:40:54;113.03;;;37.70;;
3343;SDS011;1685;53.104;8.228;2023-10-09T07:43:28;121.40;;;40.33;;
3343;SDS011;1685;53.104;8.228;2023-10-09T07:46:01;129.73;;;43.27;;
3343;SDS011;1685;53.104;8.228;2023-10-09T07:48:46;136.47;;;43.47;;
3343;SDS011;1685;53.104;8.228;2023-10-09T07:51:17;111.40;;;37.20;;
3343;SDS011;1685;53.104;8.228;2023-10-09T07:53:48;135.13;;;43.00;;
3343;SDS011;1685;53.104;8.228;2023-10-09T07:56:22;128.03;;;39.60;;
3343;SDS011;1685;53.104;8.228;2023-10-09T07:58:50;134.03;;;45.67;;
3343;SDS011;1685;53.104;8.228;2023-10-09T08:01:17;110.70;;;41.50;;
3343;SDS011;1685;53.104;8.228;2023-10-09T08:03:48;120.80;;;41.97;;
3343;SDS011;1685;53.104;8.228;2023-10-09T08:06:23;144.87;;;44.67;;
3343;SDS011;1685;53.104;8.228;2023-10-09T08:09:07;125.97;;;42.70;;
3343;SDS011;1685;53.104;8.228;2023-10-09T08:11:43;116.70;;;40.23;;
3343;SDS011;1685;53.104;8.228;2023-10-09T08:14:40;113.70;;;39.40;;
3343;SDS011;1685;53.104;8.228;2023-10-09T08:17:10;119.13;;;40.67;;
3343;SDS011;1685;53.104;8.228;2023-10-09T08:19:39;128.73;;;43.50;;
3343;SDS011;1685;53.104;8.228;2023-10-09T08:22:20;106.07;;;37.33;;
3343;SDS011;1685;53.104;8.228;2023-10-09T08:25:05;113.10;;;38.00;;
3343;SDS011;1685;53.104;8.228;2023-10-09T08:27:33;117.10;;;37.50;;
3343;SDS011;1685;53.104;8.228;2023-10-09T08:30:21;121.17;;;38.47;;
3343;SDS011;1685;53.104;8.228;2023-10-09T08:33:05;107.13;;;37.83;;
3343;SDS011;1685;53.104;8.228;2023-10-09T08:35:57;107.10;;;34.30;;
3343;SDS011;1685;53.104;8.228;2023-10-09T08:38:29;109.13;;;34.70;;
3343;SDS011;1685;53.104;8.228;2023-10-09T08:41:06;113.57;;;36.57;;
3343;SDS011;1685;53.104;8.228;2023-10-09T08:43:43;118.53;;;35.20;;
3343;SDS011;1685;53.104;8.228;2023-10-09T08:46:17;100.03;;;34.20;;
3343;SDS011;1685;53.104;8.228;2023-10-09T08:48:46;98.87;;;35.53;;
3343;SDS011;1685;53.104;8.228;2023-10-09T08:51:13;111.90;;;34.60;;
3343;SDS011;1685;53.104;8.228;2023-10-09T08:53:41;114.97;;;35.60;;
3343;SDS011;1685;53.104;8.228;2023-10-09T08:56:11;90.30;;;33.23;;
3343;SDS011;1685;53.104;8.228;2023-10-09T08:58:39;89.77;;;32.73;;
3343;SDS011;1685;53.104;8.228;2023-10-09T09:01:07;115.80;;;36.30;;
3343;SDS011;1685;53.104;8.228;2023-10-09T09:03:41;87.73;;;32.70;;
3343;SDS011;1685;53.104;8.228;2023-10-09T09:06:09;98.97;;;32.80;;
3343;SDS011;1685;53.104;8.228;2023-10-09T09:08:37;100.70;;;35.13;;
3343;SDS011;1685;53.104;8.228;2023-10-09T09:11:08;106.90;;;35.37;;
3343;SDS011;1685;53.104;8.228;2023-10-09T09:13:40;112.03;;;34.70;;
3343;SDS011;1685;53.104;8.228;2023-10-09T09:16:13;106.33;;;33.87;;
3343;SDS011;1685;53.104;8.228;2023-10-09T09:18:52;104.33;;;36.10;;
3343;SDS011;1685;53.104;8.228;2023-10-09T09:21:26;101.70;;;34.63;;
3343;SDS011;1685;53.104;8.228;2023-10-09T09:23:53;104.53;;;35.37;;
3343;SDS011;1685;53.104;8.228;2023-10-09T09:26:35;101.83;;;34.30;;
3343;SDS011;1685;53.104;8.228;2023-10-09T09:29:04;106.13;;;32.90;;
3343;SDS011;1685;53.104;8.228;2023-10-09T09:31:32;104.93;;;34.60;;
3343;SDS011;1685;53.104;8.228;2023-10-09T09:34:04;86.30;;;32.67;;
3343;SDS011;1685;53.104;8.228;2023-10-09T09:36:49;89.10;;;31.57;;
3343;SDS011;1685;53.104;8.228;2023-10-09T09:39:20;94.43;;;30.47;;
3343;SDS011;1685;53.104;8.228;2023-10-09T09:41:53;87.67;;;30.57;;
3343;SDS011;1685;53.104;8.228;2023-10-09T09:44:30;90.90;;;30.50;;
3343;SDS011;1685;53.104;8.228;2023-10-09T09:46:59;79.40;;;31.27;;
3343;SDS011;1685;53.104;8.228;2023-10-09T09:49:28;87.13;;;31.97;;
3343;SDS011;1685;53.104;8.228;2023-10-09T09:52:00;74.13;;;28.80;;
3343;SDS011;1685;53.104;8.228;2023-10-09T09:54:35;72.47;;;27.63;;
3343;SDS011;1685;53.104;8.228;2023-10-09T09:57:03;75.17;;;27.97;;
3343;SDS011;1685;53.104;8.228;2023-10-09T09:59:34;76.70;;;28.40;;
3343;SDS011;1685;53.104;8.228;2023-10-09T10:02:06;64.60;;;26.53;;
3343;SDS011;1685;53.104;8.228;2023-10-09T10:04:38;77.33;;;26.10;;
3343;SDS011;1685;53.104;8.228;2023-10-09T10:07:09;63.00;;;26.40;;
3343;SDS011;1685;53.104;8.228;2023-10-09T10:09:41;73.13;;;27.53;;
3343;SDS011;1685;53.104;8.228;2023-10-09T10:12:10;71.00;;;26.23;;
3343;SDS011;1685;53.104;8.228;2023-10-09T10:14:51;81.83;;;28.53;;
3343;SDS011;1685;53.104;8.228;2023-10-09T10:17:22;66.27;;;27.10;;
3343;SDS011;1685;53.104;8.228;2023-10-09T10:22:51;70.10;;;27.20;;
3343;SDS011;1685;53.104;8.228;2023-10-09T10:25:32;66.50;;;26.17;;
3343;SDS011;1685;53.104;8.228;2023-10-09T10:28:15;65.90;;;25.83;;
3343;SDS011;1685;53.104;8.228;2023-10-09T10:30:53;63.43;;;26.20;;
3343;SDS011;1685;53.104;8.228;2023-10-09T10:33:20;64.00;;;25.93;;
3343;SDS011;1685;53.104;8.228;2023-10-09T10:35:53;55.63;;;24.47;;
3343;SDS011;1685;53.104;8.228;2023-10-09T10:38:24;52.70;;;24.53;;
3343;SDS011;1685;53.104;8.228;2023-10-09T10:41:07;50.43;;;24.10;;
3343;SDS011;1685;53.104;8.228;2023-10-09T10:43:37;57.23;;;23.83;;
3343;SDS011;1685;53.104;8.228;2023-10-09T10:46:24;50.30;;;22.10;;
3343;SDS011;1685;53.104;8.228;2023-10-09T10:49:03;51.57;;;23.60;;
3343;SDS011;1685;53.104;8.228;2023-10-09T10:51:47;37.63;;;20.70;;
3343;SDS011;1685;53.104;8.228;2023-10-09T10:54:24;44.50;;;19.00;;
3343;SDS011;1685;53.104;8.228;2023-10-09T10:57:13;40.93;;;19.30;;
3343;SDS011;1685;53.104;8.228;2023-10-09T10:59:45;40.50;;;17.53;;
3343;SDS011;1685;53.104;8.228;2023-10-09T11:02:14;43.97;;;18.90;;
3343;SDS011;1685;53.104;8.228;2023-10-09T11:04:53;42.70;;;17.80;;
3343;SDS011;1685;53.104;8.228;2023-10-09T11:07:40;47.80;;;20.20;;
3343;SDS011;1685;53.104;8.228;2023-10-09T11:10:07;35.53;;;18.43;;
3343;SDS011;1685;53.104;8.228;2023-10-09T11:12:42;30.90;;;17.20;;
3343;SDS011;1685;53.104;8.228;2023-10-09T11:15:31;34.53;;;17.83;;
3343;SDS011;1685;53.104;8.228;2023-10-09T11:18:09;33.67;;;17.40;;
3343;SDS011;1685;53.104;8.228;2023-10-09T11:20:43;31.40;;;17.30;;
3343;SDS011;1685;53.104;8.228;2023-10-09T11:23:23;30.33;;;16.10;;
3343;SDS011;1685;53.104;8.228;2023-10-09T11:26:02;31.83;;;17.17;;
3343;SDS011;1685;53.104;8.228;2023-10-09T11:28:46;29.67;;;16.27;;
3343;SDS011;1685;53.104;8.228;2023-10-09T11:31:21;26.17;;;15.67;;
3343;SDS011;1685;53.104;8.228;2023-10-09T11:33:48;25.13;;;15.67;;
3343;SDS011;1685;53.104;8.228;2023-10-09T11:36:17;31.97;;;15.33;;
3343;SDS011;1685;53.104;8.228;2023-10-09T11:38:48;25.07;;;14.27;;
3343;SDS011;1685;53.104;8.228;2023-10-09T11:41:17;26.70;;;13.90;;
3343;SDS011;1685;53.104;8.228;2023-10-09T11:43:49;28.63;;;12.87;;
3343;SDS011;1685;53.104;8.228;2023-10-09T11:46:22;19.67;;;11.50;;
3343;SDS011;1685;53.104;8.228;2023-10-09T11:49:13;23.10;;;12.40;;
3343;SDS011;1685;53.104;8.228;2023-10-09T11:52:04;21.73;;;11.80;;
3343;SDS011;1685;53.104;8.228;2023-10-09T11:55:05;22.07;;;12.53;;
3343;SDS011;1685;53.104;8.228;2023-10-09T11:57:33;17.10;;;10.27;;
3343;SDS011;1685;53.104;8.228;2023-10-09T12:00:00;12.57;;;9.13;;
3343;SDS011;1685;53.104;8.228;2023-10-09T12:02:36;18.47;;;8.90;;
3343;SDS011;1685;53.104;8.228;2023-10-09T12:05:09;13.77;;;8.07;;
3343;SDS011;1685;53.104;8.228;2023-10-09T12:07:42;12.27;;;8.30;;
3343;SDS011;1685;53.104;8.228;2023-10-09T12:10:10;10.03;;;8.03;;
3343;SDS011;1685;53.104;8.228;2023-10-09T12:12:38;15.83;;;8.80;;
3343;SDS011;1685;53.104;8.228;2023-10-09T12:15:11;16.53;;;7.90;;
3343;SDS011;1685;53.104;8.228;2023-10-09T12:17:42;13.47;;;8.70;;
3343;SDS011;1685;53.104;8.228;2023-10-09T12:20:12;10.40;;;7.27;;
3343;SDS011;1685;53.104;8.228;2023-10-09T12:22:56;18.83;;;7.70;;
3343;SDS011;1685;53.104;8.228;2023-10-09T12:25:25;11.93;;;7.10;;
3343;SDS011;1685;53.104;8.228;2023-10-09T12:27:56;13.23;;;6.77;;
3343;SDS011;1685;53.104;8.228;2023-10-09T12:30:23;12.87;;;7.20;;
3343;SDS011;1685;53.104;8.228;2023-10-09T12:32:52;10.80;;;6.50;;
3343;SDS011;1685;53.104;8.228;2023-10-09T12:35:20;11.00;;;6.60;;
3343;SDS011;1685;53.104;8.228;2023-10-09T12:37:49;12.20;;;6.20;;
3343;SDS011;1685;53.104;8.228;2023-10-09T12:40:17;14.20;;;6.37;;
3343;SDS011;1685;53.104;8.228;2023-10-09T12:42:51;12.77;;;6.23;;
3343;SDS011;1685;53.104;8.228;2023-10-09T12:45:18;17.57;;;6.63;;
3343;SDS011;1685;53.104;8.228;2023-10-09T12:47:51;16.83;;;6.70;;
3343;SDS011;1685;53.104;8.228;2023-10-09T12:50:18;11.10;;;6.63;;
3343;SDS011;1685;53.104;8.228;2023-10-09T12:52:52;19.20;;;7.60;;
3343;SDS011;1685;53.104;8.228;2023-10-09T12:55:19;15.80;;;6.63;;
3343;SDS011;1685;53.104;8.228;2023-10-09T12:57:46;16.73;;;6.23;;
3343;SDS011;1685;53.104;8.228;2023-10-09T13:00:18;13.03;;;6.00;;
3343;SDS011;1685;53.104;8.228;2023-10-09T13:02:50;13.63;;;5.60;;
3343;SDS011;1685;53.104;8.228;2023-10-09T13:05:17;18.10;;;7.60;;
3343;SDS011;1685;53.104;8.228;2023-10-09T13:07:51;22.23;;;6.83;;
3343;SDS011;1685;53.104;8.228;2023-10-09T13:10:21;17.43;;;6.40;;
3343;SDS011;1685;53.104;8.228;2023-10-09T13:12:48;19.30;;;6.87;;
3343;SDS011;1685;53.104;8.228;2023-10-09T13:15:21;19.30;;;7.97;;
3343;SDS011;1685;53.104;8.228;2023-10-09T13:17:48;12.43;;;5.87;;
3343;SDS011;1685;53.104;8.228;2023-10-09T13:20:18;21.87;;;6.70;;
3343;SDS011;1685;53.104;8.228;2023-10-09T13:22:46;19.40;;;6.30;;
3343;SDS011;1685;53.104;8.228;2023-10-09T13:25:14;15.00;;;5.63;;
3343;SDS011;1685;53.104;8.228;2023-10-09T13:27:42;18.67;;;6.00;;
3343;SDS011;1685;53.104;8.228;2023-10-09T13:30:15;22.47;;;7.50;;
3343;SDS011;1685;53.104;8.228;2023-10-09T13:32:48;17.17;;;6.20;;
3343;SDS011;1685;53.104;8.228;2023-10-09T13:35:15;16.10;;;5.70;;
3343;SDS011;1685;53.104;8.228;2023-10-09T13:37:43;15.47;;;5.20;;
3343;SDS011;1685;53.104;8.228;2023-10-09T13:40:12;15.93;;;5.87;;
3343;SDS011;1685;53.104;8.228;2023-10-09T13:42:51;11.10;;;5.20;;
3343;SDS011;1685;53.104;8.228;2023-10-09T13:45:18;11.50;;;5.20;;
3343;SDS011;1685;53.104;8.228;2023-10-09T13:47:53;17.07;;;5.13;;
3343;SDS011;1685;53.104;8.228;2023-10-09T13:50:23;18.70;;;6.23;;
3343;SDS011;1685;53.104;8.228;2023-10-09T13:52:54;17.97;;;6.33;;
3343;SDS011;1685;53.104;8.228;2023-10-09T13:55:21;21.30;;;6.57;;
3343;SDS011;1685;53.104;8.228;2023-10-09T13:57:56;9.50;;;5.43;;
3343;SDS011;1685;53.104;8.228;2023-10-09T14:00:23;11.67;;;5.90;;
3343;SDS011;1685;53.104;8.228;2023-10-09T14:03:00;9.40;;;5.50;;
3343;SDS011;1685;53.104;8.228;2023-10-09T14:05:36;17.30;;;5.33;;
3343;SDS011;1685;53.104;8.228;2023-10-09T14:08:16;11.07;;;5.73;;
3343;SDS011;1685;53.104;8.228;2023-10-09T14:10:44;11.73;;;6.23;;
3343;SDS011;1685;53.104;8.228;2023-10-09T14:13:13;11.33;;;6.13;;
3343;SDS011;1685;53.104;8.228;2023-10-09T14:15:43;14.90;;;4.97;;
3343;SDS011;1685;53.104;8.228;2023-10-09T14:18:12;12.77;;;5.30;;
3343;SDS011;1685;53.104;8.228;2023-10-09T14:20:40;27.13;;;5.30;;
3343;SDS011;1685;53.104;8.228;2023-10-09T14:23:08;10.07;;;5.20;;
3343;SDS011;1685;53.104;8.228;2023-10-09T14:25:37;12.70;;;5.03;;
3343;SDS011;1685;53.104;8.228;2023-10-09T14:28:05;20.80;;;5.37;;
3343;SDS011;1685;53.104;8.228;2023-10-09T14:30:34;12.50;;;5.30;;
3343;SDS011;1685;53.104;8.228;2023-10-09T14:33:07;13.30;;;6.87;;
3343;SDS011;1685;53.104;8.228;2023-10-09T14:35:38;20.70;;;5.30;;
3343;SDS011;1685;53.104;8.228;2023-10-09T14:38:05;13.67;;;6.17;;
3343;SDS011;1685;53.104;8.228;2023-10-09T14:40:37;11.20;;;4.80;;
3343;SDS011;1685;53.104;8.228;2023-10-09T14:43:07;22.37;;;4.73;;
3343;SDS011;1685;53.104;8.228;2023-10-09T14:45:44;8.70;;;4.77;;
3343;SDS011;1685;53.104;8.228;2023-10-09T14:48:13;14.37;;;4.83;;
3343;SDS011;1685;53.104;8.228;2023-10-09T14:50:47;11.53;;;4.40;;
3343;SDS011;1685;53.104;8.228;2023-10-09T14:53:14;12.10;;;4.67;;
3343;SDS011;1685;53.104;8.228;2023-10-09T14:55:42;15.87;;;5.80;;
3343;SDS011;1685;53.104;8.228;2023-10-09T14:58:10;15.77;;;4.20;;
3343;SDS011;1685;53.104;8.228;2023-10-09T15:00:37;9.67;;;5.10;;
3343;SDS011;1685;53.104;8.228;2023-10-09T15:03:11;10.43;;;4.60;;
3343;SDS011;1685;53.104;8.228;2023-10-09T15:05:39;13.00;;;4.93;;
3343;SDS011;1685;53.104;8.228;2023-10-09T15:08:08;14.90;;;5.10;;
3343;SDS011;1685;53.104;8.228;2023-10-09T15:10:36;16.60;;;5.43;;
3343;SDS011;1685;53.104;8.228;2023-10-09T15:13:03;19.53;;;5.00;;
3343;SDS011;1685;53.104;8.228;2023-10-09T15:15:30;15.10;;;4.53;;
3343;SDS011;1685;53.104;8.228;2023-10-09T15:17:57;8.03;;;5.17;;
3343;SDS011;1685;53.104;8.228;2023-10-09T15:20:24;14.63;;;7.37;;
3343;SDS011;1685;53.104;8.228;2023-10-09T15:22:52;14.73;;;6.63;;
3343;SDS011;1685;53.104;8.228;2023-10-09T15:25:20;8.63;;;5.57;;
3343;SDS011;1685;53.104;8.228;2023-10-09T15:27:47;10.70;;;5.93;;
3343;SDS011;1685;53.104;8.228;2023-10-09T15:30:15;9.67;;;5.83;;
3343;SDS011;1685;53.104;8.228;2023-10-09T15:32:42;11.07;;;5.07;;
3343;SDS011;1685;53.104;8.228;2023-10-09T15:35:09;11.73;;;5.47;;
3343;SDS011;1685;53.104;8.228;2023-10-09T15:37:37;13.63;;;5.27;;